• Join FlightAware (Why Join?)
  • Login
  • US Flag 
06:44AM EDT


 

Airport Tracker/Info


-or-


 

Live Flight TrackerFlight Track Log ✈ FAO844 ✈ 03-Mar-2014 ✈ KPIE - KSWF

Flight Track Log - Related Links

Times and Time Zones

All times are in EST time to prevent confusion due to time zone crossing. See the FAO844 flight status page for this flight to view local times or setup timezone preferences in your user account.

Time Position Orientation Groundspeed Altitude Reporting Facility
EST Latitude Longitude Course Direction KTS MPH feet Rate Location/Type
03:56PM 27.8833 -82.6833 164° South 177 204 900  Level Tampa TRACON
03:57PM 27.8333 -82.6667 164° South 208 239 1,600 1,440 Climbing Tampa TRACON
03:58PM 27.7833 -82.7000 211° Southwest 268 308 3,700 2,400 Climbing Tampa TRACON
03:59PM 27.8000 -82.7667 286° West 261 300 6,500 2,640 Climbing Tampa TRACON
04:00PM 27.8667 -82.7500 12° North 299 344 9,000 1,860 Climbing Tampa TRACON
04:02PM 28.0392 -82.6786 20° North 333 383 11,900 1,800 Climbing Jacksonville Center
04:03PM 28.1433 -82.6383 19° North 367 422 14,300 2,160 Climbing Jacksonville Center
04:04PM 28.2539 -82.5933 20° North 398 458 16,300 1,980 Climbing Jacksonville Center
04:05PM 28.3686 -82.5717 North 409 471 18,300 1,800 Climbing Jacksonville Center
04:06PM 28.4917 -82.5783 357° North 424 488 19,900 1,620 Climbing Jacksonville Center
04:07PM 28.6169 -82.5850 357° North 429 494 21,600 1,560 Climbing Jacksonville Center
04:08PM 28.7319 -82.5919 357° North 443 510 23,100 1,500 Climbing Jacksonville Center
04:09PM 28.8611 -82.5986 357° North 450 518 24,600 1,560 Climbing Jacksonville Center
04:10PM 28.9906 -82.6031 358° North 461 531 26,300 1,560 Climbing Jacksonville Center
04:11PM 29.1222 -82.6097 357° North 461 531 27,800 1,200 Climbing Jacksonville Center
04:12PM 29.2536 -82.6164 357° North 466 536 28,800 720 Climbing Jacksonville Center
04:13PM 29.3872 -82.6256 357° North 466 536 29,300 480 Climbing Jacksonville Center
04:14PM 29.5147 -82.6300 358° North 461 531 29,800 480 Climbing Jacksonville Center
04:15PM 29.6544 -82.6369 358° North 461 531 30,300 480 Climbing Jacksonville Center
04:16PM 29.7672 -82.6486 355° North 461 531 30,800 600 Climbing Jacksonville Center
04:17PM 29.8925 -82.6553 357° North 456 525 31,600 900 Climbing Jacksonville Center
04:18PM 30.0344 -82.6597 358° North 456 525 32,700 660 Climbing Jacksonville Center
04:19PM 30.1578 -82.6667 357° North 456 525 33,000 120 Climbing Jacksonville Center
04:20PM 30.2789 -82.6736 357° North 450 518 33,000  Level Jacksonville Center
04:21PM 30.4042 -82.6806 357° North 444 511 33,000  Level Jacksonville Center
04:22PM 30.5044 -82.6539 13° North 439 505 33,000  Level Jacksonville Center
04:23PM 30.6294 -82.5569 34° Northeast 455 524 33,000  Level Jacksonville Center
04:24PM 30.7333 -82.4431 43° Northeast 480 552 33,000  Level Jacksonville Center
04:25PM 30.8394 -82.3336 42° Northeast 494 568 33,000  Level Jacksonville Center
04:26PM 30.9411 -82.2217 43° Northeast 499 574 33,000  Level Jacksonville Center
04:27PM 31.0469 -82.1069 43° Northeast 504 580 33,000  Level Jacksonville Center
04:28PM 31.1508 -81.9992 42° Northeast 504 580 33,000  Level Jacksonville Center
04:29PM 31.2522 -81.8817 45° Northeast 504 580 33,000  Level Jacksonville Center
04:30PM 31.3556 -81.7711 42° Northeast 499 574 33,000  Level Jacksonville Center
04:31PM 31.4672 -81.6481 43° Northeast 499 574 33,000  Level Jacksonville Center
04:32PM 31.5725 -81.5319 43° Northeast 499 574 33,000  Level Jacksonville Center
04:33PM 31.6653 -81.4306 43° Northeast 506 582 33,000  Level Jacksonville Center
04:34PM 31.7786 -81.3039 44° Northeast 506 582 33,000  Level Jacksonville Center
04:35PM 31.8817 -81.1872 44° Northeast 506 582 33,000  Level Jacksonville Center
04:36PM 31.9864 -81.0703 43° Northeast 506 582 33,000  Level Jacksonville Center
04:37PM 32.0911 -80.9528 44° Northeast 506 582 33,000  Level Jacksonville Center
04:38PM 32.1875 -80.8478 43° Northeast 511 588 33,000  Level Jacksonville Center
04:39PM 32.2981 -80.7175 45° Northeast 520 598 33,000  Level Jacksonville Center
04:40PM 32.4047 -80.5992 43° Northeast 520 598 33,000  Level Jacksonville Center
04:41PM 32.5089 -80.4808 44° Northeast 516 594 33,000  Level Jacksonville Center
04:42PM 32.6108 -80.3622 44° Northeast 516 594 33,000  Level Jacksonville Center
04:43PM 32.7150 -80.2433 44° Northeast 516 594 33,000  Level Jacksonville Center
04:44PM 32.8208 -80.1217 44° Northeast 516 594 33,000  Level Jacksonville Center
04:45PM 32.9311 -80.0092 41° Northeast 516 594 33,000  Level Jacksonville Center
04:46PM 33.0522 -79.9211 31° Northeast 516 594 33,000  Level Jacksonville Center
04:47PM 33.1631 -79.8431 31° Northeast 511 588 33,000  Level Jacksonville Center
04:48PM 33.2842 -79.7544 31° Northeast 505 581 33,000  Level Jacksonville Center
04:49PM 33.4089 -79.6628 32° Northeast 510 587 33,000  Level Jacksonville Center
04:50PM 33.5297 -79.5739 32° Northeast 510 587 33,000  Level Jacksonville Center
04:51PM 33.6525 -79.4819 32° Northeast 510 587 33,000  Level Jacksonville Center
04:52PM 33.7692 -79.3975 31° Northeast 504 580 33,000  Level Jacksonville Center
04:54PM 34.0169 -79.2119 32° Northeast 516 594 33,000  Level Washington Center
04:55PM 34.1428 -79.1197 31° Northeast 521 600 33,000  Level Washington Center
04:56PM 34.2750 -79.0225 31° Northeast 521 600 33,000  Level Washington Center
04:57PM 34.3881 -78.9364 32° Northeast 521 600 33,000  Level Washington Center
04:58PM 34.5136 -78.8433 31° Northeast 521 600 33,000  Level Washington Center
04:59PM 34.6500 -78.7353 33° Northeast 521 600 33,000  Level Washington Center
05:00PM 34.7756 -78.6389 32° Northeast 527 606 33,000  Level Washington Center
05:01PM 34.8989 -78.5447 32° Northeast 527 606 33,000  Level Washington Center
05:02PM 35.0225 -78.4478 33° Northeast 527 606 33,000  Level Washington Center
05:03PM 35.1456 -78.3531 32° Northeast 527 606 33,000  Level Washington Center
05:04PM 35.2708 -78.2556 32° Northeast 527 606 33,000  Level Washington Center
05:05PM 35.3856 -78.1678 32° Northeast 527 606 33,000  Level Washington Center
05:06PM 35.5108 -78.0697 32° Northeast 527 606 33,000  Level Washington Center
05:07PM 35.6381 -77.9714 32° Northeast 527 606 33,000  Level Washington Center
05:08PM 35.7628 -77.8753 32° Northeast 527 606 33,000  Level Washington Center
05:09PM 35.8878 -77.7764 33° Northeast 532 612 33,000  Level Washington Center
05:10PM 36.0128 -77.6719 34° Northeast 532 612 33,000  Level Washington Center
05:11PM 36.1336 -77.5619 36° Northeast 539 620 33,000  Level Washington Center
05:12PM 36.2628 -77.4364 38° Northeast 539 620 33,000  Level Washington Center
05:13PM 36.3833 -77.3258 36° Northeast 539 620 33,000  Level Washington Center
05:14PM 36.5019 -77.2119 38° Northeast 534 615 33,000  Level Washington Center
05:15PM 36.6222 -77.1008 37° Northeast 534 615 33,000  Level Washington Center
05:16PM 36.7425 -76.9889 37° Northeast 539 620 33,000  Level Washington Center
05:17PM 36.8628 -76.8794 36° Northeast 539 620 33,000  Level Washington Center
05:18PM 36.9764 -76.7775 36° Northeast 539 620 33,000  Level Washington Center
05:19PM 37.0983 -76.6672 36° Northeast 545 627 33,000  Level Washington Center
05:20PM 37.2203 -76.5542 36° Northeast 545 627 33,000  Level Washington Center
05:21PM 37.3422 -76.4408 36° Northeast 545 627 33,000  Level Washington Center
05:22PM 37.4681 -76.3272 36° Northeast 551 634 33,000  Level Washington Center
05:23PM 37.5875 -76.2156 37° Northeast 551 634 33,000  Level Washington Center
05:24PM 37.7175 -76.1036 34° Northeast 551 634 33,000  Level Washington Center
05:25PM 37.8367 -75.9889 37° Northeast 546 628 33,000  Level Washington Center
05:26PM 37.9600 -75.8708 37° Northeast 546 628 33,000  Level Washington Center
05:27PM 38.0833 -75.7553 36° Northeast 551 634 33,000  Level Washington Center
05:28PM 38.2064 -75.6367 37° Northeast 551 634 33,000  Level Washington Center
05:29PM 38.3442 -75.5175 34° Northeast 551 634 33,000  Level Washington Center
05:30PM 38.4711 -75.4061 34° Northeast 551 634 33,000  Level Washington Center
05:31PM 38.6003 -75.2942 34° Northeast 545 627 33,000  Level Washington Center
05:32PM 38.7250 -75.1792 36° Northeast 551 634 33,000  Level Washington Center
05:33PM 38.8517 -75.0692 34° Northeast 546 628 33,000  Level Washington Center
05:34PM 38.9742 -74.9614 34° Northeast 546 628 33,000  Level Washington Center
05:35PM 39.1006 -74.8533 34° Northeast 546 628 33,000  Level Washington Center
05:36PM 39.2269 -74.7422 34° Northeast 546 628 33,000  Level Washington Center
05:37PM 39.3511 -74.6281 35° Northeast 546 628 33,000  Level Washington Center
05:38PM 39.4772 -74.5161 34° Northeast 546 628 33,000  Level Washington Center
05:40PM 39.6642 -74.3447 35° Northeast 549 632 33,000 -180 Level New York Center
05:41PM 39.7867 -74.2328 35° Northeast 546 628 32,600 -1,440 Descending New York Center
05:42PM 39.9364 -74.0975 35° Northeast 547 629 30,100 -2,040 Descending New York Center
05:43PM 40.0578 -73.9842 36° Northeast 543 625 28,500 -1,740 Descending New York Center
05:44PM 40.1739 -73.8797 34° Northeast 513 590 26,500 -2,040 Descending New York Center
05:45PM 40.2881 -73.7744 35° Northeast 492 566 24,300 -2,100 Descending New York Center
05:46PM 40.3969 -73.6731 35° Northeast 483 556 22,300 -1,740 Descending New York Center
05:47PM 40.5611 -73.5228 35° Northeast 456 525 19,800 -1,320 Descending Boston Center
05:48PM 40.6628 -73.4264 36° Northeast 436 502 19,000 -420 Descending Boston Center
05:49PM 40.7600 -73.3356 35° Northeast 426 490 19,000 -180 Level Boston Center
05:50PM 40.8722 -73.2094 40° Northeast 436 502 18,700 -660 Descending Boston Center
05:51PM 40.9700 -73.1147 36° Northeast 433 498 17,700 -1,020 Descending Boston Center
05:52PM 41.0692 -73.0319 32° Northeast 421 484 16,700 -1,560 Descending Boston Center
05:53PM 41.1672 -72.9625 28° Northeast 398 458 14,600 -1,980 Descending Boston Center
05:55PM 41.2589 -72.9847 350° North 339 390 12,700 -1,800 Descending Boston Center
05:56PM 41.3264 -73.0675 317° Northwest 316 364 11,000 -840 Descending Boston Center
05:57PM 41.3883 -73.1403 319° Northwest 297 342 11,000  Level Boston Center
05:58PM 41.4497 -73.2150 318° Northwest 299 344 11,000  Level Boston Center
05:59PM 41.5161 -73.2936 318° Northwest 296 341 11,000  Level Boston Center
06:00PM 41.5753 -73.3647 318° Northwest 300 345 11,000 -540 Level Boston Center
06:01PM 41.6389 -73.4403 318° Northwest 288 331 10,000 -1,260 Descending Boston Center
06:02PM 41.6917 -73.5061 317° Northwest 266 306 8,500 -1,500 Descending Boston Center
06:03PM 41.7444 -73.5694 318° Northwest 259 298 7,000 -1,560 Descending Boston Center
06:04PM 41.7769 -73.6553 297° West 259 298 5,400 -1,020 Descending Boston Center
06:05PM 41.7256 -73.7239 225° Southwest 269 310 5,000 -240 Descending Boston Center
06:06PM 41.6583 -73.7717 208° Southwest 273 314 5,000 -120 Level Boston Center
06:07PM 41.5961 -73.8189 210° Southwest 257 296 4,800 -600 Descending Boston Center
06:07PM 41.5556 -73.8556 214° Southwest 224 258 4,000 -1,080 Descending New York Center
06:08PM 41.5333 -73.9000 236° Southwest 207 238 3,400 -780 Descending New York TRACON
06:09PM 41.5333 -73.9500 270° West 154 177 2,800 -660 Descending New York TRACON
06:10PM 41.5167 -74.0000 246° West 140 161 2,100 -900 Descending New York TRACON
06:11PM 41.5167 -74.0500 270° West 142 163 1,100 -1,020 Descending New York TRACON
06:14PM 41.5000 -74.1000 252° West  Level FlightAware Approximate
06:21PM 41.5041 -74.1048 252° West  Level Estimated